sensor_id;sensor_type;location;lat;lon;timestamp;P1;durP1;ratioP1;P2;durP2;ratioP2
5428;SDS011;2737;52.386;9.980;2023-11-21T00:01:25;15.60;;;5.80;;
5428;SDS011;2737;52.386;9.980;2023-11-21T00:03:52;9.83;;;5.30;;
5428;SDS011;2737;52.386;9.980;2023-11-21T00:06:19;24.67;;;5.50;;
5428;SDS011;2737;52.386;9.980;2023-11-21T00:08:48;18.57;;;5.43;;
5428;SDS011;2737;52.386;9.980;2023-11-21T00:11:15;15.27;;;5.87;;
5428;SDS011;2737;52.386;9.980;2023-11-21T00:13:42;10.70;;;6.00;;
5428;SDS011;2737;52.386;9.980;2023-11-21T00:16:10;9.93;;;5.33;;
5428;SDS011;2737;52.386;9.980;2023-11-21T00:18:37;17.30;;;5.40;;
5428;SDS011;2737;52.386;9.980;2023-11-21T00:21:05;17.40;;;5.30;;
5428;SDS011;2737;52.386;9.980;2023-11-21T00:23:32;13.03;;;5.87;;
5428;SDS011;2737;52.386;9.980;2023-11-21T00:26:00;14.33;;;5.73;;
5428;SDS011;2737;52.386;9.980;2023-11-21T00:28:29;22.43;;;6.33;;
5428;SDS011;2737;52.386;9.980;2023-11-21T00:30:56;20.63;;;6.23;;
5428;SDS011;2737;52.386;9.980;2023-11-21T00:33:23;19.50;;;6.30;;
5428;SDS011;2737;52.386;9.980;2023-11-21T00:35:50;10.43;;;5.40;;
5428;SDS011;2737;52.386;9.980;2023-11-21T00:38:17;16.00;;;5.93;;
5428;SDS011;2737;52.386;9.980;2023-11-21T00:40:45;13.87;;;5.43;;
5428;SDS011;2737;52.386;9.980;2023-11-21T00:43:13;13.03;;;5.80;;
5428;SDS011;2737;52.386;9.980;2023-11-21T00:45:40;18.20;;;6.17;;
5428;SDS011;2737;52.386;9.980;2023-11-21T00:48:07;14.73;;;6.03;;
5428;SDS011;2737;52.386;9.980;2023-11-21T00:50:34;10.60;;;5.73;;
5428;SDS011;2737;52.386;9.980;2023-11-21T00:53:01;14.83;;;5.50;;
5428;SDS011;2737;52.386;9.980;2023-11-21T00:55:28;14.30;;;5.43;;
5428;SDS011;2737;52.386;9.980;2023-11-21T00:57:55;11.63;;;6.10;;
5428;SDS011;2737;52.386;9.980;2023-11-21T01:00:24;16.40;;;5.70;;
5428;SDS011;2737;52.386;9.980;2023-11-21T01:02:51;16.03;;;7.47;;
5428;SDS011;2737;52.386;9.980;2023-11-21T01:05:18;24.50;;;7.07;;
5428;SDS011;2737;52.386;9.980;2023-11-21T01:07:46;22.47;;;8.10;;
5428;SDS011;2737;52.386;9.980;2023-11-21T01:10:13;12.87;;;6.57;;
5428;SDS011;2737;52.386;9.980;2023-11-21T01:12:42;26.20;;;7.80;;
5428;SDS011;2737;52.386;9.980;2023-11-21T01:15:09;14.57;;;6.93;;
5428;SDS011;2737;52.386;9.980;2023-11-21T01:17:38;15.83;;;6.70;;
5428;SDS011;2737;52.386;9.980;2023-11-21T01:20:06;17.67;;;6.30;;
5428;SDS011;2737;52.386;9.980;2023-11-21T01:22:37;20.70;;;7.60;;
5428;SDS011;2737;52.386;9.980;2023-11-21T01:25:04;15.20;;;7.37;;
5428;SDS011;2737;52.386;9.980;2023-11-21T01:27:32;22.83;;;7.20;;
5428;SDS011;2737;52.386;9.980;2023-11-21T01:30:00;16.47;;;7.37;;
5428;SDS011;2737;52.386;9.980;2023-11-21T01:32:27;23.80;;;8.53;;
5428;SDS011;2737;52.386;9.980;2023-11-21T01:34:56;16.57;;;7.80;;
5428;SDS011;2737;52.386;9.980;2023-11-21T01:37:23;16.73;;;6.70;;
5428;SDS011;2737;52.386;9.980;2023-11-21T01:39:52;22.13;;;8.37;;
5428;SDS011;2737;52.386;9.980;2023-11-21T01:42:20;23.47;;;7.57;;
5428;SDS011;2737;52.386;9.980;2023-11-21T01:44:47;23.43;;;7.90;;
5428;SDS011;2737;52.386;9.980;2023-11-21T01:47:14;15.93;;;8.17;;
5428;SDS011;2737;52.386;9.980;2023-11-21T01:49:43;23.33;;;7.23;;
5428;SDS011;2737;52.386;9.980;2023-11-21T01:52:12;21.80;;;8.30;;
5428;SDS011;2737;52.386;9.980;2023-11-21T01:54:40;22.90;;;8.47;;
5428;SDS011;2737;52.386;9.980;2023-11-21T01:57:08;16.20;;;7.47;;
5428;SDS011;2737;52.386;9.980;2023-11-21T01:59:35;22.33;;;7.87;;
5428;SDS011;2737;52.386;9.980;2023-11-21T02:02:03;21.37;;;8.23;;
5428;SDS011;2737;52.386;9.980;2023-11-21T02:04:31;23.13;;;8.73;;
5428;SDS011;2737;52.386;9.980;2023-11-21T02:06:58;17.40;;;8.73;;
5428;SDS011;2737;52.386;9.980;2023-11-21T02:09:27;19.33;;;8.57;;
5428;SDS011;2737;52.386;9.980;2023-11-21T02:11:56;30.03;;;8.70;;
5428;SDS011;2737;52.386;9.980;2023-11-21T02:14:24;24.07;;;9.40;;
5428;SDS011;2737;52.386;9.980;2023-11-21T02:16:51;18.70;;;9.03;;
5428;SDS011;2737;52.386;9.980;2023-11-21T02:19:19;16.83;;;7.80;;
5428;SDS011;2737;52.386;9.980;2023-11-21T02:21:49;19.10;;;8.87;;
5428;SDS011;2737;52.386;9.980;2023-11-21T02:24:19;22.83;;;9.33;;
5428;SDS011;2737;52.386;9.980;2023-11-21T02:26:46;23.23;;;9.63;;
5428;SDS011;2737;52.386;9.980;2023-11-21T02:29:13;26.40;;;9.30;;
5428;SDS011;2737;52.386;9.980;2023-11-21T02:31:43;24.90;;;9.43;;
5428;SDS011;2737;52.386;9.980;2023-11-21T02:34:14;22.17;;;9.60;;
5428;SDS011;2737;52.386;9.980;2023-11-21T02:36:41;22.03;;;9.20;;
5428;SDS011;2737;52.386;9.980;2023-11-21T02:39:08;16.50;;;8.43;;
5428;SDS011;2737;52.386;9.980;2023-11-21T02:41:37;32.87;;;9.90;;
5428;SDS011;2737;52.386;9.980;2023-11-21T02:44:05;24.03;;;9.80;;
5428;SDS011;2737;52.386;9.980;2023-11-21T02:46:32;15.70;;;7.90;;
5428;SDS011;2737;52.386;9.980;2023-11-21T02:49:00;25.77;;;9.50;;
5428;SDS011;2737;52.386;9.980;2023-11-21T02:51:27;26.17;;;9.20;;
5428;SDS011;2737;52.386;9.980;2023-11-21T02:53:54;26.00;;;10.00;;
5428;SDS011;2737;52.386;9.980;2023-11-21T02:56:24;34.80;;;11.97;;
5428;SDS011;2737;52.386;9.980;2023-11-21T02:58:55;32.20;;;11.27;;
5428;SDS011;2737;52.386;9.980;2023-11-21T03:01:22;27.70;;;10.27;;
5428;SDS011;2737;52.386;9.980;2023-11-21T03:03:50;27.27;;;9.50;;
5428;SDS011;2737;52.386;9.980;2023-11-21T03:06:17;23.57;;;10.10;;
5428;SDS011;2737;52.386;9.980;2023-11-21T03:08:44;22.07;;;10.57;;
5428;SDS011;2737;52.386;9.980;2023-11-21T03:11:11;27.17;;;9.93;;
5428;SDS011;2737;52.386;9.980;2023-11-21T03:13:39;30.33;;;10.30;;
5428;SDS011;2737;52.386;9.980;2023-11-21T03:16:09;27.07;;;10.90;;
5428;SDS011;2737;52.386;9.980;2023-11-21T03:18:36;29.53;;;10.60;;
5428;SDS011;2737;52.386;9.980;2023-11-21T03:21:04;22.73;;;9.97;;
5428;SDS011;2737;52.386;9.980;2023-11-21T03:23:32;32.93;;;10.33;;
5428;SDS011;2737;52.386;9.980;2023-11-21T03:25:59;22.93;;;10.70;;
5428;SDS011;2737;52.386;9.980;2023-11-21T03:28:26;35.33;;;10.87;;
5428;SDS011;2737;52.386;9.980;2023-11-21T03:30:55;29.33;;;11.63;;
5428;SDS011;2737;52.386;9.980;2023-11-21T03:33:23;36.70;;;11.83;;
5428;SDS011;2737;52.386;9.980;2023-11-21T03:35:50;41.63;;;11.77;;
5428;SDS011;2737;52.386;9.980;2023-11-21T03:38:18;24.23;;;11.60;;
5428;SDS011;2737;52.386;9.980;2023-11-21T03:40:45;29.90;;;12.73;;
5428;SDS011;2737;52.386;9.980;2023-11-21T03:43:13;26.90;;;11.30;;
5428;SDS011;2737;52.386;9.980;2023-11-21T03:45:40;30.00;;;12.20;;
5428;SDS011;2737;52.386;9.980;2023-11-21T03:48:07;35.50;;;13.97;;
5428;SDS011;2737;52.386;9.980;2023-11-21T03:50:36;41.63;;;14.43;;
5428;SDS011;2737;52.386;9.980;2023-11-21T03:53:03;36.73;;;14.40;;
5428;SDS011;2737;52.386;9.980;2023-11-21T03:55:30;37.13;;;14.00;;
5428;SDS011;2737;52.386;9.980;2023-11-21T03:57:57;38.43;;;13.53;;
5428;SDS011;2737;52.386;9.980;2023-11-21T04:00:25;40.67;;;15.77;;
5428;SDS011;2737;52.386;9.980;2023-11-21T04:02:53;50.80;;;16.57;;
5428;SDS011;2737;52.386;9.980;2023-11-21T04:05:20;45.37;;;15.27;;
5428;SDS011;2737;52.386;9.980;2023-11-21T04:07:50;40.20;;;15.53;;
5428;SDS011;2737;52.386;9.980;2023-11-21T04:10:17;38.70;;;14.30;;
5428;SDS011;2737;52.386;9.980;2023-11-21T04:12:45;48.13;;;16.60;;
5428;SDS011;2737;52.386;9.980;2023-11-21T04:15:12;44.90;;;15.57;;
5428;SDS011;2737;52.386;9.980;2023-11-21T04:17:39;40.90;;;16.70;;
5428;SDS011;2737;52.386;9.980;2023-11-21T04:20:07;43.67;;;16.33;;
5428;SDS011;2737;52.386;9.980;2023-11-21T04:22:36;49.77;;;15.73;;
5428;SDS011;2737;52.386;9.980;2023-11-21T04:25:08;48.93;;;16.83;;
5428;SDS011;2737;52.386;9.980;2023-11-21T04:27:36;45.73;;;16.70;;
5428;SDS011;2737;52.386;9.980;2023-11-21T04:30:03;46.13;;;17.07;;
5428;SDS011;2737;52.386;9.980;2023-11-21T04:32:31;41.37;;;16.50;;
5428;SDS011;2737;52.386;9.980;2023-11-21T04:34:58;47.33;;;17.60;;
5428;SDS011;2737;52.386;9.980;2023-11-21T04:37:25;51.70;;;16.83;;
5428;SDS011;2737;52.386;9.980;2023-11-21T04:39:52;49.00;;;18.80;;
5428;SDS011;2737;52.386;9.980;2023-11-21T04:42:21;48.83;;;18.00;;
5428;SDS011;2737;52.386;9.980;2023-11-21T04:44:48;44.90;;;18.00;;
5428;SDS011;2737;52.386;9.980;2023-11-21T04:47:15;56.70;;;19.03;;
5428;SDS011;2737;52.386;9.980;2023-11-21T04:49:45;45.50;;;17.00;;
5428;SDS011;2737;52.386;9.980;2023-11-21T04:52:13;47.43;;;17.23;;
5428;SDS011;2737;52.386;9.980;2023-11-21T04:54:40;41.77;;;18.07;;
5428;SDS011;2737;52.386;9.980;2023-11-21T04:57:08;52.77;;;18.40;;
5428;SDS011;2737;52.386;9.980;2023-11-21T04:59:36;47.63;;;18.80;;
5428;SDS011;2737;52.386;9.980;2023-11-21T05:02:03;40.13;;;16.27;;
5428;SDS011;2737;52.386;9.980;2023-11-21T05:04:30;44.63;;;16.30;;
5428;SDS011;2737;52.386;9.980;2023-11-21T05:06:58;53.60;;;17.53;;
5428;SDS011;2737;52.386;9.980;2023-11-21T05:09:25;39.77;;;16.33;;
5428;SDS011;2737;52.386;9.980;2023-11-21T05:11:53;47.83;;;16.57;;
5428;SDS011;2737;52.386;9.980;2023-11-21T05:14:20;49.90;;;16.87;;
5428;SDS011;2737;52.386;9.980;2023-11-21T05:16:49;41.47;;;16.90;;
5428;SDS011;2737;52.386;9.980;2023-11-21T05:19:17;41.10;;;17.37;;
5428;SDS011;2737;52.386;9.980;2023-11-21T05:21:44;42.53;;;18.97;;
5428;SDS011;2737;52.386;9.980;2023-11-21T05:24:11;43.57;;;16.90;;
5428;SDS011;2737;52.386;9.980;2023-11-21T05:26:38;50.07;;;18.10;;
5428;SDS011;2737;52.386;9.980;2023-11-21T05:29:05;36.43;;;15.27;;
5428;SDS011;2737;52.386;9.980;2023-11-21T05:31:33;34.27;;;16.37;;
5428;SDS011;2737;52.386;9.980;2023-11-21T05:34:02;38.67;;;16.17;;
5428;SDS011;2737;52.386;9.980;2023-11-21T05:36:30;29.60;;;14.60;;
5428;SDS011;2737;52.386;9.980;2023-11-21T05:38:58;35.90;;;15.80;;
5428;SDS011;2737;52.386;9.980;2023-11-21T05:41:25;32.40;;;14.60;;
5428;SDS011;2737;52.386;9.980;2023-11-21T05:43:52;36.70;;;16.00;;
5428;SDS011;2737;52.386;9.980;2023-11-21T05:46:19;41.80;;;14.70;;
5428;SDS011;2737;52.386;9.980;2023-11-21T05:48:47;42.27;;;15.90;;
5428;SDS011;2737;52.386;9.980;2023-11-21T05:51:15;38.53;;;14.77;;
5428;SDS011;2737;52.386;9.980;2023-11-21T05:53:42;34.80;;;13.97;;
5428;SDS011;2737;52.386;9.980;2023-11-21T05:56:09;41.03;;;16.40;;
5428;SDS011;2737;52.386;9.980;2023-11-21T05:58:36;36.27;;;14.80;;
5428;SDS011;2737;52.386;9.980;2023-11-21T06:01:05;34.70;;;14.53;;
5428;SDS011;2737;52.386;9.980;2023-11-21T06:03:34;33.27;;;13.73;;
5428;SDS011;2737;52.386;9.980;2023-11-21T06:06:01;43.00;;;15.57;;
5428;SDS011;2737;52.386;9.980;2023-11-21T06:08:30;33.07;;;13.30;;
5428;SDS011;2737;52.386;9.980;2023-11-21T06:10:57;34.50;;;14.63;;
5428;SDS011;2737;52.386;9.980;2023-11-21T06:13:24;24.93;;;11.20;;
5428;SDS011;2737;52.386;9.980;2023-11-21T06:15:51;20.00;;;9.30;;
5428;SDS011;2737;52.386;9.980;2023-11-21T06:18:18;12.17;;;6.63;;
5428;SDS011;2737;52.386;9.980;2023-11-21T06:20:45;13.73;;;5.93;;
5428;SDS011;2737;52.386;9.980;2023-11-21T06:23:12;10.27;;;5.40;;
5428;SDS011;2737;52.386;9.980;2023-11-21T06:25:42;8.50;;;5.10;;
5428;SDS011;2737;52.386;9.980;2023-11-21T06:28:10;10.67;;;6.03;;
5428;SDS011;2737;52.386;9.980;2023-11-21T06:30:36;11.20;;;5.30;;
5428;SDS011;2737;52.386;9.980;2023-11-21T06:33:04;10.80;;;5.77;;
5428;SDS011;2737;52.386;9.980;2023-11-21T06:35:31;8.43;;;5.00;;
5428;SDS011;2737;52.386;9.980;2023-11-21T06:38:00;13.40;;;6.27;;
5428;SDS011;2737;52.386;9.980;2023-11-21T06:40:27;13.53;;;6.80;;
5428;SDS011;2737;52.386;9.980;2023-11-21T06:42:56;12.47;;;6.73;;
5428;SDS011;2737;52.386;9.980;2023-11-21T06:45:23;13.70;;;6.63;;
5428;SDS011;2737;52.386;9.980;2023-11-21T06:47:50;14.13;;;7.23;;
5428;SDS011;2737;52.386;9.980;2023-11-21T06:50:18;12.03;;;6.83;;
5428;SDS011;2737;52.386;9.980;2023-11-21T06:52:46;12.40;;;6.47;;
5428;SDS011;2737;52.386;9.980;2023-11-21T06:55:13;10.43;;;6.60;;
5428;SDS011;2737;52.386;9.980;2023-11-21T06:57:41;13.03;;;7.00;;
5428;SDS011;2737;52.386;9.980;2023-11-21T07:00:10;17.10;;;8.53;;
5428;SDS011;2737;52.386;9.980;2023-11-21T07:02:38;13.43;;;7.10;;
5428;SDS011;2737;52.386;9.980;2023-11-21T07:05:05;15.13;;;7.73;;
5428;SDS011;2737;52.386;9.980;2023-11-21T07:07:32;13.43;;;7.83;;
5428;SDS011;2737;52.386;9.980;2023-11-21T07:10:02;16.90;;;9.10;;
5428;SDS011;2737;52.386;9.980;2023-11-21T07:12:30;15.17;;;7.70;;
5428;SDS011;2737;52.386;9.980;2023-11-21T07:14:58;17.73;;;7.87;;
5428;SDS011;2737;52.386;9.980;2023-11-21T07:17:26;14.77;;;8.07;;
5428;SDS011;2737;52.386;9.980;2023-11-21T07:19:53;15.67;;;8.57;;
5428;SDS011;2737;52.386;9.980;2023-11-21T07:22:20;16.60;;;8.57;;
5428;SDS011;2737;52.386;9.980;2023-11-21T07:24:48;20.70;;;8.83;;
5428;SDS011;2737;52.386;9.980;2023-11-21T07:27:16;13.30;;;7.87;;
5428;SDS011;2737;52.386;9.980;2023-11-21T07:29:43;17.80;;;8.87;;
5428;SDS011;2737;52.386;9.980;2023-11-21T07:32:10;17.53;;;9.10;;
5428;SDS011;2737;52.386;9.980;2023-11-21T07:34:39;18.30;;;8.70;;
5428;SDS011;2737;52.386;9.980;2023-11-21T07:37:07;15.00;;;8.40;;
5428;SDS011;2737;52.386;9.980;2023-11-21T07:39:34;18.47;;;8.60;;
5428;SDS011;2737;52.386;9.980;2023-11-21T07:42:01;16.73;;;8.60;;
5428;SDS011;2737;52.386;9.980;2023-11-21T07:44:29;19.70;;;9.10;;
5428;SDS011;2737;52.386;9.980;2023-11-21T07:46:56;15.40;;;8.90;;
5428;SDS011;2737;52.386;9.980;2023-11-21T07:49:23;15.77;;;9.13;;
5428;SDS011;2737;52.386;9.980;2023-11-21T07:51:53;16.90;;;8.70;;
5428;SDS011;2737;52.386;9.980;2023-11-21T07:54:20;17.67;;;8.00;;
5428;SDS011;2737;52.386;9.980;2023-11-21T07:56:47;14.03;;;7.67;;
5428;SDS011;2737;52.386;9.980;2023-11-21T07:59:14;18.27;;;9.40;;
5428;SDS011;2737;52.386;9.980;2023-11-21T08:01:43;15.80;;;9.00;;
5428;SDS011;2737;52.386;9.980;2023-11-21T08:04:10;18.10;;;9.07;;
5428;SDS011;2737;52.386;9.980;2023-11-21T08:06:38;18.73;;;9.90;;
5428;SDS011;2737;52.386;9.980;2023-11-21T08:09:08;19.63;;;9.30;;
5428;SDS011;2737;52.386;9.980;2023-11-21T08:11:37;23.30;;;10.67;;
5428;SDS011;2737;52.386;9.980;2023-11-21T08:14:04;25.60;;;10.80;;
5428;SDS011;2737;52.386;9.980;2023-11-21T08:16:31;22.27;;;10.90;;
5428;SDS011;2737;52.386;9.980;2023-11-21T08:18:58;21.30;;;11.30;;
5428;SDS011;2737;52.386;9.980;2023-11-21T08:21:26;23.00;;;10.73;;
5428;SDS011;2737;52.386;9.980;2023-11-21T08:23:54;20.10;;;10.23;;
5428;SDS011;2737;52.386;9.980;2023-11-21T08:26:23;22.53;;;10.57;;
5428;SDS011;2737;52.386;9.980;2023-11-21T08:28:50;24.90;;;11.00;;
5428;SDS011;2737;52.386;9.980;2023-11-21T08:31:23;23.40;;;10.90;;
5428;SDS011;2737;52.386;9.980;2023-11-21T08:33:51;21.57;;;10.27;;
5428;SDS011;2737;52.386;9.980;2023-11-21T08:36:20;22.83;;;10.07;;
5428;SDS011;2737;52.386;9.980;2023-11-21T08:38:48;17.27;;;8.53;;
5428;SDS011;2737;52.386;9.980;2023-11-21T08:41:15;16.27;;;8.73;;
5428;SDS011;2737;52.386;9.980;2023-11-21T08:43:43;16.50;;;9.10;;
5428;SDS011;2737;52.386;9.980;2023-11-21T08:46:10;18.37;;;9.03;;
5428;SDS011;2737;52.386;9.980;2023-11-21T08:48:37;17.83;;;9.53;;
5428;SDS011;2737;52.386;9.980;2023-11-21T08:51:04;14.50;;;8.80;;
5428;SDS011;2737;52.386;9.980;2023-11-21T08:53:32;16.83;;;8.40;;
5428;SDS011;2737;52.386;9.980;2023-11-21T08:55:59;15.67;;;8.60;;
5428;SDS011;2737;52.386;9.980;2023-11-21T08:58:26;14.70;;;8.70;;
5428;SDS011;2737;52.386;9.980;2023-11-21T09:00:54;13.93;;;8.13;;
5428;SDS011;2737;52.386;9.980;2023-11-21T09:03:21;15.27;;;8.53;;
5428;SDS011;2737;52.386;9.980;2023-11-21T09:05:48;13.43;;;7.20;;
5428;SDS011;2737;52.386;9.980;2023-11-21T09:08:15;12.97;;;7.90;;
5428;SDS011;2737;52.386;9.980;2023-11-21T09:10:42;11.83;;;7.67;;
5428;SDS011;2737;52.386;9.980;2023-11-21T09:13:12;12.83;;;7.50;;
5428;SDS011;2737;52.386;9.980;2023-11-21T09:15:41;14.13;;;7.43;;
5428;SDS011;2737;52.386;9.980;2023-11-21T09:18:12;15.77;;;7.47;;
5428;SDS011;2737;52.386;9.980;2023-11-21T09:20:40;14.33;;;8.37;;
5428;SDS011;2737;52.386;9.980;2023-11-21T09:23:07;11.67;;;6.47;;
5428;SDS011;2737;52.386;9.980;2023-11-21T09:25:34;13.30;;;6.93;;
5428;SDS011;2737;52.386;9.980;2023-11-21T09:28:02;14.33;;;6.97;;
5428;SDS011;2737;52.386;9.980;2023-11-21T09:30:33;11.13;;;6.80;;
5428;SDS011;2737;52.386;9.980;2023-11-21T09:33:00;18.73;;;7.27;;
5428;SDS011;2737;52.386;9.980;2023-11-21T09:35:28;13.33;;;6.80;;
5428;SDS011;2737;52.386;9.980;2023-11-21T09:37:55;11.90;;;6.70;;
5428;SDS011;2737;52.386;9.980;2023-11-21T09:40:22;10.73;;;6.20;;
5428;SDS011;2737;52.386;9.980;2023-11-21T09:42:53;8.63;;;5.43;;
5428;SDS011;2737;52.386;9.980;2023-11-21T09:45:24;8.77;;;5.50;;
5428;SDS011;2737;52.386;9.980;2023-11-21T09:47:52;7.33;;;5.50;;
5428;SDS011;2737;52.386;9.980;2023-11-21T09:50:20;10.20;;;6.53;;
5428;SDS011;2737;52.386;9.980;2023-11-21T09:52:57;10.40;;;6.00;;
5428;SDS011;2737;52.386;9.980;2023-11-21T09:55:30;11.43;;;6.00;;
5428;SDS011;2737;52.386;9.980;2023-11-21T09:58:01;9.13;;;5.80;;
5428;SDS011;2737;52.386;9.980;2023-11-21T10:00:30;8.00;;;5.10;;
5428;SDS011;2737;52.386;9.980;2023-11-21T10:02:58;12.60;;;6.00;;
5428;SDS011;2737;52.386;9.980;2023-11-21T10:05:25;9.33;;;5.57;;
5428;SDS011;2737;52.386;9.980;2023-11-21T10:07:55;9.10;;;5.20;;
5428;SDS011;2737;52.386;9.980;2023-11-21T10:10:23;10.10;;;5.60;;
5428;SDS011;2737;52.386;9.980;2023-11-21T10:12:53;10.30;;;5.50;;
5428;SDS011;2737;52.386;9.980;2023-11-21T10:15:22;8.50;;;5.10;;
5428;SDS011;2737;52.386;9.980;2023-11-21T10:17:51;6.73;;;4.63;;
5428;SDS011;2737;52.386;9.980;2023-11-21T10:20:19;8.37;;;4.80;;
5428;SDS011;2737;52.386;9.980;2023-11-21T10:22:46;7.73;;;5.50;;
5428;SDS011;2737;52.386;9.980;2023-11-21T10:25:15;7.70;;;5.10;;
5428;SDS011;2737;52.386;9.980;2023-11-21T10:27:46;8.33;;;5.50;;
5428;SDS011;2737;52.386;9.980;2023-11-21T10:30:15;7.30;;;4.97;;
5428;SDS011;2737;52.386;9.980;2023-11-21T10:32:43;13.20;;;5.27;;
5428;SDS011;2737;52.386;9.980;2023-11-21T10:35:10;7.00;;;4.23;;
5428;SDS011;2737;52.386;9.980;2023-11-21T10:37:37;8.60;;;5.40;;
5428;SDS011;2737;52.386;9.980;2023-11-21T10:40:05;5.73;;;4.37;;
5428;SDS011;2737;52.386;9.980;2023-11-21T10:42:38;10.17;;;5.20;;
5428;SDS011;2737;52.386;9.980;2023-11-21T10:45:06;7.63;;;4.83;;
5428;SDS011;2737;52.386;9.980;2023-11-21T10:47:38;6.10;;;4.20;;
5428;SDS011;2737;52.386;9.980;2023-11-21T10:50:06;6.10;;;4.27;;
5428;SDS011;2737;52.386;9.980;2023-11-21T10:52:36;8.10;;;5.30;;
5428;SDS011;2737;52.386;9.980;2023-11-21T10:55:10;8.87;;;5.27;;
5428;SDS011;2737;52.386;9.980;2023-11-21T10:57:44;10.30;;;5.50;;
5428;SDS011;2737;52.386;9.980;2023-11-21T11:00:15;9.00;;;4.90;;
5428;SDS011;2737;52.386;9.980;2023-11-21T11:02:45;12.03;;;5.27;;
5428;SDS011;2737;52.386;9.980;2023-11-21T11:05:14;10.50;;;5.70;;
5428;SDS011;2737;52.386;9.980;2023-11-21T11:07:45;6.10;;;4.47;;
5428;SDS011;2737;52.386;9.980;2023-11-21T11:10:17;10.10;;;4.63;;
5428;SDS011;2737;52.386;9.980;2023-11-21T11:12:47;8.80;;;4.37;;
5428;SDS011;2737;52.386;9.980;2023-11-21T11:15:15;6.43;;;4.60;;
5428;SDS011;2737;52.386;9.980;2023-11-21T11:17:42;6.90;;;5.00;;
5428;SDS011;2737;52.386;9.980;2023-11-21T11:20:11;8.70;;;5.10;;
5428;SDS011;2737;52.386;9.980;2023-11-21T11:22:42;9.13;;;5.10;;
5428;SDS011;2737;52.386;9.980;2023-11-21T11:25:25;7.53;;;4.33;;
5428;SDS011;2737;52.386;9.980;2023-11-21T11:28:03;8.20;;;4.83;;
5428;SDS011;2737;52.386;9.980;2023-11-21T11:30:38;8.80;;;5.00;;
5428;SDS011;2737;52.386;9.980;2023-11-21T11:33:12;6.10;;;4.20;;
5428;SDS011;2737;52.386;9.980;2023-11-21T11:35:52;8.33;;;4.70;;
5428;SDS011;2737;52.386;9.980;2023-11-21T11:38:23;7.77;;;4.70;;
5428;SDS011;2737;52.386;9.980;2023-11-21T11:40:52;7.63;;;4.70;;
5428;SDS011;2737;52.386;9.980;2023-11-21T11:43:26;9.53;;;5.07;;
5428;SDS011;2737;52.386;9.980;2023-11-21T11:45:55;8.37;;;5.13;;
5428;SDS011;2737;52.386;9.980;2023-11-21T11:48:24;12.70;;;5.00;;
5428;SDS011;2737;52.386;9.980;2023-11-21T11:51:00;12.90;;;5.30;;
5428;SDS011;2737;52.386;9.980;2023-11-21T11:53:33;6.23;;;4.20;;
5428;SDS011;2737;52.386;9.980;2023-11-21T11:59:04;7.60;;;4.57;;
5428;SDS011;2737;52.386;9.980;2023-11-21T12:01:34;5.30;;;3.73;;
5428;SDS011;2737;52.386;9.980;2023-11-21T12:07:00;5.60;;;4.30;;
5428;SDS011;2737;52.386;9.980;2023-11-21T12:09:29;4.77;;;3.30;;
5428;SDS011;2737;52.386;9.980;2023-11-21T12:11:57;5.57;;;3.73;;
5428;SDS011;2737;52.386;9.980;2023-11-21T12:14:26;4.97;;;3.70;;
5428;SDS011;2737;52.386;9.980;2023-11-21T12:16:54;5.27;;;3.93;;
5428;SDS011;2737;52.386;9.980;2023-11-21T12:19:21;6.20;;;3.87;;
5428;SDS011;2737;52.386;9.980;2023-11-21T12:21:49;9.67;;;3.97;;
5428;SDS011;2737;52.386;9.980;2023-11-21T12:24:17;7.33;;;4.27;;
5428;SDS011;2737;52.386;9.980;2023-11-21T12:26:44;3.63;;;3.20;;
5428;SDS011;2737;52.386;9.980;2023-11-21T12:29:11;6.60;;;3.40;;
5428;SDS011;2737;52.386;9.980;2023-11-21T12:31:39;6.20;;;3.50;;
5428;SDS011;2737;52.386;9.980;2023-11-21T12:34:07;6.03;;;3.50;;
5428;SDS011;2737;52.386;9.980;2023-11-21T12:36:36;5.77;;;3.20;;
5428;SDS011;2737;52.386;9.980;2023-11-21T12:39:04;6.30;;;2.90;;
5428;SDS011;2737;52.386;9.980;2023-11-21T12:41:34;7.33;;;3.20;;
5428;SDS011;2737;52.386;9.980;2023-11-21T12:44:01;4.50;;;3.13;;
5428;SDS011;2737;52.386;9.980;2023-11-21T12:46:28;5.70;;;3.70;;
5428;SDS011;2737;52.386;9.980;2023-11-21T12:48:59;6.00;;;3.60;;
5428;SDS011;2737;52.386;9.980;2023-11-21T12:51:26;5.90;;;3.47;;
5428;SDS011;2737;52.386;9.980;2023-11-21T12:53:54;6.30;;;3.53;;
5428;SDS011;2737;52.386;9.980;2023-11-21T12:56:23;5.07;;;3.27;;
5428;SDS011;2737;52.386;9.980;2023-11-21T12:58:53;4.63;;;3.30;;
5428;SDS011;2737;52.386;9.980;2023-11-21T13:01:25;5.03;;;3.63;;
5428;SDS011;2737;52.386;9.980;2023-11-21T13:03:56;6.87;;;4.07;;
5428;SDS011;2737;52.386;9.980;2023-11-21T13:06:26;7.67;;;3.63;;
5428;SDS011;2737;52.386;9.980;2023-11-21T13:08:58;9.23;;;3.83;;
5428;SDS011;2737;52.386;9.980;2023-11-21T13:11:25;5.07;;;3.43;;
5428;SDS011;2737;52.386;9.980;2023-11-21T13:13:57;5.70;;;4.03;;
5428;SDS011;2737;52.386;9.980;2023-11-21T13:16:25;4.40;;;3.53;;
5428;SDS011;2737;52.386;9.980;2023-11-21T13:18:52;5.40;;;3.57;;
5428;SDS011;2737;52.386;9.980;2023-11-21T13:21:19;4.70;;;3.33;;
5428;SDS011;2737;52.386;9.980;2023-11-21T13:23:48;4.67;;;3.30;;
5428;SDS011;2737;52.386;9.980;2023-11-21T13:26:18;4.90;;;2.83;;
5428;SDS011;2737;52.386;9.980;2023-11-21T13:28:45;5.47;;;3.73;;
5428;SDS011;2737;52.386;9.980;2023-11-21T13:31:12;6.70;;;2.90;;
5428;SDS011;2737;52.386;9.980;2023-11-21T13:33:51;4.67;;;2.80;;
5428;SDS011;2737;52.386;9.980;2023-11-21T13:36:20;5.53;;;2.70;;
5428;SDS011;2737;52.386;9.980;2023-11-21T13:38:50;4.70;;;2.83;;
5428;SDS011;2737;52.386;9.980;2023-11-21T13:41:18;6.60;;;3.20;;
5428;SDS011;2737;52.386;9.980;2023-11-21T13:43:53;4.90;;;3.13;;
5428;SDS011;2737;52.386;9.980;2023-11-21T13:46:28;6.10;;;3.20;;
5428;SDS011;2737;52.386;9.980;2023-11-21T13:49:02;2.83;;;2.40;;
5428;SDS011;2737;52.386;9.980;2023-11-21T13:51:30;6.60;;;3.00;;
5428;SDS011;2737;52.386;9.980;2023-11-21T13:54:05;5.33;;;3.33;;
5428;SDS011;2737;52.386;9.980;2023-11-21T13:56:34;7.10;;;3.80;;
5428;SDS011;2737;52.386;9.980;2023-11-21T13:59:02;6.63;;;2.70;;
5428;SDS011;2737;52.386;9.980;2023-11-21T14:01:38;6.50;;;2.97;;
5428;SDS011;2737;52.386;9.980;2023-11-21T14:04:19;4.50;;;2.40;;
5428;SDS011;2737;52.386;9.980;2023-11-21T14:07:00;3.10;;;2.37;;
5428;SDS011;2737;52.386;9.980;2023-11-21T14:09:45;5.27;;;3.07;;
5428;SDS011;2737;52.386;9.980;2023-11-21T14:12:14;4.73;;;3.20;;
5428;SDS011;2737;52.386;9.980;2023-11-21T14:14:41;3.40;;;2.57;;
5428;SDS011;2737;52.386;9.980;2023-11-21T14:17:09;4.20;;;2.70;;
5428;SDS011;2737;52.386;9.980;2023-11-21T14:19:36;4.20;;;2.60;;
5428;SDS011;2737;52.386;9.980;2023-11-21T14:22:06;4.30;;;2.53;;
5428;SDS011;2737;52.386;9.980;2023-11-21T14:24:34;5.63;;;2.97;;
5428;SDS011;2737;52.386;9.980;2023-11-21T14:27:03;6.53;;;3.87;;
5428;SDS011;2737;52.386;9.980;2023-11-21T14:29:30;10.60;;;3.50;;
5428;SDS011;2737;52.386;9.980;2023-11-21T14:32:02;7.40;;;2.90;;
5428;SDS011;2737;52.386;9.980;2023-11-21T14:34:30;4.40;;;3.00;;
5428;SDS011;2737;52.386;9.980;2023-11-21T14:36:57;8.33;;;3.10;;
5428;SDS011;2737;52.386;9.980;2023-11-21T14:39:24;5.77;;;3.70;;
5428;SDS011;2737;52.386;9.980;2023-11-21T14:41:53;6.47;;;3.10;;
5428;SDS011;2737;52.386;9.980;2023-11-21T14:44:22;5.10;;;3.87;;
5428;SDS011;2737;52.386;9.980;2023-11-21T14:46:52;5.00;;;3.20;;
5428;SDS011;2737;52.386;9.980;2023-11-21T14:49:20;6.27;;;4.17;;
5428;SDS011;2737;52.386;9.980;2023-11-21T14:51:51;4.03;;;3.10;;
5428;SDS011;2737;52.386;9.980;2023-11-21T14:54:26;5.33;;;3.10;;
5428;SDS011;2737;52.386;9.980;2023-11-21T14:57:05;4.43;;;3.00;;
5428;SDS011;2737;52.386;9.980;2023-11-21T14:59:42;9.67;;;3.70;;
5428;SDS011;2737;52.386;9.980;2023-11-21T15:02:12;6.53;;;3.70;;
5428;SDS011;2737;52.386;9.980;2023-11-21T15:04:46;5.90;;;3.37;;
5428;SDS011;2737;52.386;9.980;2023-11-21T15:07:13;8.30;;;3.93;;
5428;SDS011;2737;52.386;9.980;2023-11-21T15:09:40;8.80;;;5.00;;
5428;SDS011;2737;52.386;9.980;2023-11-21T15:12:08;11.00;;;6.03;;
5428;SDS011;2737;52.386;9.980;2023-11-21T15:14:41;7.07;;;4.30;;
5428;SDS011;2737;52.386;9.980;2023-11-21T15:17:10;8.87;;;5.47;;